メインページ
METAR-TAF:

METAR-TAF

空港 :

マタベリ国際空港

イースター島, チリ

緯度: 27-09S, 経度: 109-25W, 海抜: 51m

現時点の気象観測

当レポートは59分前の15:00(UTC)に作成
の風 8kt
気温 24°C
湿度 69%
気圧 1022 hPa
視程10km以上
高度2300ftの雲は散在している

METAR: SCIP 181500Z 09008KT 9999 SCT023 24/18 Q1022 NOSIG

時間: 10:59 (15:59 UTC)

予報

当レポートは5時間1分前の10:58(UTC)に作成
予報は18日の 12時(UTC)から 19日の 12時(UTC)まで有効
の風 5kt
視程10km以上
高度2000ftの雲は散在している
高度5000ftの千切れ雲あり
18日の 15時(UTC)から 18日の 17時(UTC)まで徐々に
の風 10kt
高度2000ftの雲は散在している
18日の 19時(UTC)から 19日の 00時(UTC)まで一時的に
東/北東の風 10kt
高度2000ftの雲は散在している
高度4000ftの雲は散在している
19日の 04時(UTC)から 19日の 06時(UTC)まで徐々に
の風 5kt
19日の 08時(UTC)から 19日の 12時(UTC)まで一時的に
視程: 6000m
高度1800ftの千切れ雲あり
弱いにわか雨

TAF: SCIP 181058Z 1812/1912 09005KT 9999 SCT020 BKN050 TX26/1820Z TN19 /1912Z BECMG 1815/1817 09010KT SCT020 TEMPO 1819/1900 06010KT SCT020 SCT040 BECMG 1904/1906 09005KT TEMPO 1908/1912 6000 -SHRA BKN018

4,000以上の空港の気象観測と天気予報(METAR報とTAF報)

利用可能な観測所は地図上に黄色い丸と赤い丸で示す。

丸の上にカーソルを重ねると観測所名を参照できる。

次にクリックすると気象観測と天気予報を参照できる。

マップの切り替え:黒色「×」印の緑ボタンをクリックして拡大、「-」印の緑ボタンをクリックして縮小、緑色の三角印をクリックして隣りの地図に切り替え


METAR-TAF: